sensor_id;sensor_type;location;lat;lon;timestamp;temperature;humidity
19220;DHT22;9744;49.364;7.484;2023-10-19T00:01:50;11.80;99.90
19220;DHT22;9744;49.364;7.484;2023-10-19T00:04:17;11.80;99.90
19220;DHT22;9744;49.364;7.484;2023-10-19T00:06:45;11.80;99.90
19220;DHT22;9744;49.364;7.484;2023-10-19T00:09:14;11.80;99.90
19220;DHT22;9744;49.364;7.484;2023-10-19T00:11:42;11.90;99.90
19220;DHT22;9744;49.364;7.484;2023-10-19T00:14:08;11.80;99.90
19220;DHT22;9744;49.364;7.484;2023-10-19T00:16:42;11.90;99.90
19220;DHT22;9744;49.364;7.484;2023-10-19T00:19:11;11.90;99.90
19220;DHT22;9744;49.364;7.484;2023-10-19T00:21:46;12.00;99.90
19220;DHT22;9744;49.364;7.484;2023-10-19T00:24:17;12.10;99.90
19220;DHT22;9744;49.364;7.484;2023-10-19T00:26:45;12.10;99.90
19220;DHT22;9744;49.364;7.484;2023-10-19T00:29:14;12.00;99.90
19220;DHT22;9744;49.364;7.484;2023-10-19T00:31:57;12.00;99.90
19220;DHT22;9744;49.364;7.484;2023-10-19T00:34:25;12.00;99.90
19220;DHT22;9744;49.364;7.484;2023-10-19T00:36:55;12.10;99.90
19220;DHT22;9744;49.364;7.484;2023-10-19T00:39:34;12.10;99.90
19220;DHT22;9744;49.364;7.484;2023-10-19T00:42:09;12.10;99.90
19220;DHT22;9744;49.364;7.484;2023-10-19T00:44:41;12.10;99.90
19220;DHT22;9744;49.364;7.484;2023-10-19T00:47:14;12.20;99.90
19220;DHT22;9744;49.364;7.484;2023-10-19T00:49:45;12.10;99.90
19220;DHT22;9744;49.364;7.484;2023-10-19T00:52:14;12.10;99.90
19220;DHT22;9744;49.364;7.484;2023-10-19T00:54:46;12.10;99.90
19220;DHT22;9744;49.364;7.484;2023-10-19T00:57:25;12.20;99.90
19220;DHT22;9744;49.364;7.484;2023-10-19T01:00:01;12.20;99.90
19220;DHT22;9744;49.364;7.484;2023-10-19T01:02:37;12.20;99.90
19220;DHT22;9744;49.364;7.484;2023-10-19T01:05:09;12.20;99.90
19220;DHT22;9744;49.364;7.484;2023-10-19T01:07:40;12.30;99.90
19220;DHT22;9744;49.364;7.484;2023-10-19T01:10:08;12.20;99.90
19220;DHT22;9744;49.364;7.484;2023-10-19T01:12:37;12.20;99.90
19220;DHT22;9744;49.364;7.484;2023-10-19T01:15:08;12.30;99.90
19220;DHT22;9744;49.364;7.484;2023-10-19T01:17:39;12.30;99.90
19220;DHT22;9744;49.364;7.484;2023-10-19T01:20:10;12.30;99.90
19220;DHT22;9744;49.364;7.484;2023-10-19T01:22:50;12.30;99.90
19220;DHT22;9744;49.364;7.484;2023-10-19T01:25:19;12.30;99.90
19220;DHT22;9744;49.364;7.484;2023-10-19T01:28:01;12.30;99.90
19220;DHT22;9744;49.364;7.484;2023-10-19T01:30:33;12.30;99.90
19220;DHT22;9744;49.364;7.484;2023-10-19T01:33:00;12.30;99.90
19220;DHT22;9744;49.364;7.484;2023-10-19T01:35:28;12.30;99.90
19220;DHT22;9744;49.364;7.484;2023-10-19T01:38:17;12.40;99.90
19220;DHT22;9744;49.364;7.484;2023-10-19T01:40:44;12.40;99.90
19220;DHT22;9744;49.364;7.484;2023-10-19T01:43:14;12.50;99.90
19220;DHT22;9744;49.364;7.484;2023-10-19T01:45:47;12.50;99.90
19220;DHT22;9744;49.364;7.484;2023-10-19T01:48:19;12.50;99.90
19220;DHT22;9744;49.364;7.484;2023-10-19T01:50:50;12.50;99.90
19220;DHT22;9744;49.364;7.484;2023-10-19T01:53:18;12.60;99.90
19220;DHT22;9744;49.364;7.484;2023-10-19T01:55:52;12.50;99.90
19220;DHT22;9744;49.364;7.484;2023-10-19T01:58:24;12.60;99.90
19220;DHT22;9744;49.364;7.484;2023-10-19T02:00:51;12.60;99.90
19220;DHT22;9744;49.364;7.484;2023-10-19T02:03:21;12.60;99.90
19220;DHT22;9744;49.364;7.484;2023-10-19T02:05:49;12.70;99.90
19220;DHT22;9744;49.364;7.484;2023-10-19T02:08:22;12.70;99.90
19220;DHT22;9744;49.364;7.484;2023-10-19T02:10:51;12.70;99.90
19220;DHT22;9744;49.364;7.484;2023-10-19T02:13:18;12.70;99.90
19220;DHT22;9744;49.364;7.484;2023-10-19T02:15:45;12.70;99.90
19220;DHT22;9744;49.364;7.484;2023-10-19T02:18:12;12.70;99.90
19220;DHT22;9744;49.364;7.484;2023-10-19T02:20:38;12.70;99.90
19220;DHT22;9744;49.364;7.484;2023-10-19T02:23:07;12.70;99.90
19220;DHT22;9744;49.364;7.484;2023-10-19T02:25:35;12.70;99.90
19220;DHT22;9744;49.364;7.484;2023-10-19T02:28:04;12.70;99.90
19220;DHT22;9744;49.364;7.484;2023-10-19T02:30:32;12.70;99.90
19220;DHT22;9744;49.364;7.484;2023-10-19T02:33:01;12.70;99.90
19220;DHT22;9744;49.364;7.484;2023-10-19T02:35:29;12.70;99.90
19220;DHT22;9744;49.364;7.484;2023-10-19T02:37:56;12.80;99.90
19220;DHT22;9744;49.364;7.484;2023-10-19T02:40:24;12.80;99.90
19220;DHT22;9744;49.364;7.484;2023-10-19T02:42:55;12.80;99.90
19220;DHT22;9744;49.364;7.484;2023-10-19T02:45:22;12.80;99.90
19220;DHT22;9744;49.364;7.484;2023-10-19T02:47:49;12.90;99.90
19220;DHT22;9744;49.364;7.484;2023-10-19T02:50:16;12.90;99.90
19220;DHT22;9744;49.364;7.484;2023-10-19T02:52:48;12.90;99.90
19220;DHT22;9744;49.364;7.484;2023-10-19T02:55:14;13.00;99.90
19220;DHT22;9744;49.364;7.484;2023-10-19T02:57:42;13.00;99.90
19220;DHT22;9744;49.364;7.484;2023-10-19T03:00:14;13.10;99.90
19220;DHT22;9744;49.364;7.484;2023-10-19T03:02:40;13.10;99.90
19220;DHT22;9744;49.364;7.484;2023-10-19T03:05:08;13.20;99.90
19220;DHT22;9744;49.364;7.484;2023-10-19T03:07:41;13.20;99.90
19220;DHT22;9744;49.364;7.484;2023-10-19T03:10:10;13.20;99.90
19220;DHT22;9744;49.364;7.484;2023-10-19T03:12:49;13.20;99.90
19220;DHT22;9744;49.364;7.484;2023-10-19T03:15:18;13.20;99.90
19220;DHT22;9744;49.364;7.484;2023-10-19T03:17:46;13.20;99.90
19220;DHT22;9744;49.364;7.484;2023-10-19T03:20:15;13.30;99.90
19220;DHT22;9744;49.364;7.484;2023-10-19T03:22:43;13.30;99.90
19220;DHT22;9744;49.364;7.484;2023-10-19T03:25:13;13.20;99.90
19220;DHT22;9744;49.364;7.484;2023-10-19T03:27:57;13.30;99.90
19220;DHT22;9744;49.364;7.484;2023-10-19T03:30:33;13.20;99.90
19220;DHT22;9744;49.364;7.484;2023-10-19T03:33:04;13.20;99.90
19220;DHT22;9744;49.364;7.484;2023-10-19T03:35:35;13.20;99.90
19220;DHT22;9744;49.364;7.484;2023-10-19T03:38:04;13.20;99.90
19220;DHT22;9744;49.364;7.484;2023-10-19T03:40:40;13.20;99.90
19220;DHT22;9744;49.364;7.484;2023-10-19T03:43:12;13.20;99.90
19220;DHT22;9744;49.364;7.484;2023-10-19T03:45:48;13.20;99.90
19220;DHT22;9744;49.364;7.484;2023-10-19T03:48:19;13.10;99.90
19220;DHT22;9744;49.364;7.484;2023-10-19T03:50:52;13.20;99.90
19220;DHT22;9744;49.364;7.484;2023-10-19T03:53:21;13.20;99.90
19220;DHT22;9744;49.364;7.484;2023-10-19T03:55:49;13.30;99.90
19220;DHT22;9744;49.364;7.484;2023-10-19T03:58:18;13.30;99.90
19220;DHT22;9744;49.364;7.484;2023-10-19T04:00:49;13.30;99.90
19220;DHT22;9744;49.364;7.484;2023-10-19T04:03:17;13.40;99.90
19220;DHT22;9744;49.364;7.484;2023-10-19T04:05:44;13.40;99.90
19220;DHT22;9744;49.364;7.484;2023-10-19T04:08:15;13.40;99.90
19220;DHT22;9744;49.364;7.484;2023-10-19T04:10:47;13.50;99.90
19220;DHT22;9744;49.364;7.484;2023-10-19T04:13:34;13.50;99.90
19220;DHT22;9744;49.364;7.484;2023-10-19T04:16:04;13.50;99.90
19220;DHT22;9744;49.364;7.484;2023-10-19T04:18:34;13.50;99.90
19220;DHT22;9744;49.364;7.484;2023-10-19T04:21:04;13.50;99.90
19220;DHT22;9744;49.364;7.484;2023-10-19T04:23:33;13.50;99.90
19220;DHT22;9744;49.364;7.484;2023-10-19T04:26:02;13.50;99.90
19220;DHT22;9744;49.364;7.484;2023-10-19T04:28:37;13.50;99.90
19220;DHT22;9744;49.364;7.484;2023-10-19T04:31:12;13.50;99.90
19220;DHT22;9744;49.364;7.484;2023-10-19T04:33:42;13.50;99.90
19220;DHT22;9744;49.364;7.484;2023-10-19T04:36:12;13.50;99.90
19220;DHT22;9744;49.364;7.484;2023-10-19T04:38:40;13.50;99.90
19220;DHT22;9744;49.364;7.484;2023-10-19T04:41:10;13.50;99.90
19220;DHT22;9744;49.364;7.484;2023-10-19T04:43:39;13.50;99.90
19220;DHT22;9744;49.364;7.484;2023-10-19T04:46:11;13.60;99.90
19220;DHT22;9744;49.364;7.484;2023-10-19T04:48:39;13.50;99.90
19220;DHT22;9744;49.364;7.484;2023-10-19T04:51:08;13.50;99.90
19220;DHT22;9744;49.364;7.484;2023-10-19T04:53:36;13.60;99.90
19220;DHT22;9744;49.364;7.484;2023-10-19T04:56:06;13.60;99.90
19220;DHT22;9744;49.364;7.484;2023-10-19T04:58:36;13.60;99.90
19220;DHT22;9744;49.364;7.484;2023-10-19T05:01:03;13.60;99.90
19220;DHT22;9744;49.364;7.484;2023-10-19T05:03:32;13.60;99.90
19220;DHT22;9744;49.364;7.484;2023-10-19T05:06:01;13.60;99.90
19220;DHT22;9744;49.364;7.484;2023-10-19T05:08:28;13.60;99.90
19220;DHT22;9744;49.364;7.484;2023-10-19T05:10:58;13.60;99.90
19220;DHT22;9744;49.364;7.484;2023-10-19T05:13:26;13.60;99.90
19220;DHT22;9744;49.364;7.484;2023-10-19T05:15:54;13.60;99.90
19220;DHT22;9744;49.364;7.484;2023-10-19T05:18:23;13.60;99.90
19220;DHT22;9744;49.364;7.484;2023-10-19T05:20:55;13.60;99.90
19220;DHT22;9744;49.364;7.484;2023-10-19T05:23:23;13.60;99.90
19220;DHT22;9744;49.364;7.484;2023-10-19T05:25:52;13.60;99.90
19220;DHT22;9744;49.364;7.484;2023-10-19T05:28:19;13.60;99.90
19220;DHT22;9744;49.364;7.484;2023-10-19T05:30:47;13.60;99.90
19220;DHT22;9744;49.364;7.484;2023-10-19T05:33:16;13.50;99.90
19220;DHT22;9744;49.364;7.484;2023-10-19T05:35:47;13.50;99.90
19220;DHT22;9744;49.364;7.484;2023-10-19T05:38:15;13.50;99.90
19220;DHT22;9744;49.364;7.484;2023-10-19T05:40:42;13.50;99.90
19220;DHT22;9744;49.364;7.484;2023-10-19T05:43:11;13.50;99.90
19220;DHT22;9744;49.364;7.484;2023-10-19T05:45:38;13.50;99.90
19220;DHT22;9744;49.364;7.484;2023-10-19T05:48:06;13.50;99.90
19220;DHT22;9744;49.364;7.484;2023-10-19T05:50:34;13.40;99.90
19220;DHT22;9744;49.364;7.484;2023-10-19T05:53:02;13.50;99.90
19220;DHT22;9744;49.364;7.484;2023-10-19T05:55:32;13.50;99.90
19220;DHT22;9744;49.364;7.484;2023-10-19T05:58:00;13.50;99.90
19220;DHT22;9744;49.364;7.484;2023-10-19T06:00:27;13.50;99.90
19220;DHT22;9744;49.364;7.484;2023-10-19T06:02:54;13.50;99.90
19220;DHT22;9744;49.364;7.484;2023-10-19T06:05:21;13.50;99.90
19220;DHT22;9744;49.364;7.484;2023-10-19T06:07:50;13.50;99.90
19220;DHT22;9744;49.364;7.484;2023-10-19T06:10:19;13.40;99.90
19220;DHT22;9744;49.364;7.484;2023-10-19T06:12:50;13.50;99.90
19220;DHT22;9744;49.364;7.484;2023-10-19T06:15:20;13.50;99.90
19220;DHT22;9744;49.364;7.484;2023-10-19T06:17:49;13.40;99.90
19220;DHT22;9744;49.364;7.484;2023-10-19T06:20:16;13.40;99.90
19220;DHT22;9744;49.364;7.484;2023-10-19T06:22:54;13.40;99.90
19220;DHT22;9744;49.364;7.484;2023-10-19T06:25:23;13.40;99.90
19220;DHT22;9744;49.364;7.484;2023-10-19T06:27:52;13.40;99.90
19220;DHT22;9744;49.364;7.484;2023-10-19T06:30:23;13.30;99.90
19220;DHT22;9744;49.364;7.484;2023-10-19T06:32:54;13.30;99.90
19220;DHT22;9744;49.364;7.484;2023-10-19T06:35:23;13.30;99.90
19220;DHT22;9744;49.364;7.484;2023-10-19T06:37:50;13.30;99.90
19220;DHT22;9744;49.364;7.484;2023-10-19T06:40:17;13.40;99.90
19220;DHT22;9744;49.364;7.484;2023-10-19T06:42:46;13.40;99.90
19220;DHT22;9744;49.364;7.484;2023-10-19T06:45:16;13.40;99.90
19220;DHT22;9744;49.364;7.484;2023-10-19T06:47:46;13.40;99.90
19220;DHT22;9744;49.364;7.484;2023-10-19T06:50:15;13.30;99.90
19220;DHT22;9744;49.364;7.484;2023-10-19T06:52:44;13.30;99.90
19220;DHT22;9744;49.364;7.484;2023-10-19T06:55:12;13.30;99.90
19220;DHT22;9744;49.364;7.484;2023-10-19T06:57:42;13.40;99.90
19220;DHT22;9744;49.364;7.484;2023-10-19T07:00:11;13.40;99.90
19220;DHT22;9744;49.364;7.484;2023-10-19T07:02:43;13.40;99.90
19220;DHT22;9744;49.364;7.484;2023-10-19T07:05:12;13.40;99.90
19220;DHT22;9744;49.364;7.484;2023-10-19T07:07:44;13.40;99.90
19220;DHT22;9744;49.364;7.484;2023-10-19T07:10:13;13.40;99.90
19220;DHT22;9744;49.364;7.484;2023-10-19T07:12:42;13.40;99.90
19220;DHT22;9744;49.364;7.484;2023-10-19T07:15:10;13.40;99.90
19220;DHT22;9744;49.364;7.484;2023-10-19T07:17:40;13.30;99.90
19220;DHT22;9744;49.364;7.484;2023-10-19T07:20:10;13.40;99.90
19220;DHT22;9744;49.364;7.484;2023-10-19T07:22:47;13.40;99.90
19220;DHT22;9744;49.364;7.484;2023-10-19T07:25:15;13.30;99.90
19220;DHT22;9744;49.364;7.484;2023-10-19T07:27:46;13.30;99.90
19220;DHT22;9744;49.364;7.484;2023-10-19T07:30:14;13.30;99.90
19220;DHT22;9744;49.364;7.484;2023-10-19T07:32:47;13.30;99.90
19220;DHT22;9744;49.364;7.484;2023-10-19T07:35:19;13.40;99.90
19220;DHT22;9744;49.364;7.484;2023-10-19T07:37:46;13.40;99.90
19220;DHT22;9744;49.364;7.484;2023-10-19T07:40:14;13.40;99.90
19220;DHT22;9744;49.364;7.484;2023-10-19T07:42:41;13.40;99.90
19220;DHT22;9744;49.364;7.484;2023-10-19T07:45:09;13.40;99.90
19220;DHT22;9744;49.364;7.484;2023-10-19T07:47:37;13.40;99.90
19220;DHT22;9744;49.364;7.484;2023-10-19T07:50:07;13.40;99.90
19220;DHT22;9744;49.364;7.484;2023-10-19T07:52:39;13.50;99.90
19220;DHT22;9744;49.364;7.484;2023-10-19T07:55:07;13.50;99.90
19220;DHT22;9744;49.364;7.484;2023-10-19T07:57:34;13.50;99.90
19220;DHT22;9744;49.364;7.484;2023-10-19T08:00:02;13.60;99.90
19220;DHT22;9744;49.364;7.484;2023-10-19T08:02:30;13.60;99.90
19220;DHT22;9744;49.364;7.484;2023-10-19T08:05:00;13.70;99.90
19220;DHT22;9744;49.364;7.484;2023-10-19T08:07:32;13.70;99.90
19220;DHT22;9744;49.364;7.484;2023-10-19T08:10:01;13.70;99.90
19220;DHT22;9744;49.364;7.484;2023-10-19T08:12:31;13.70;99.90
19220;DHT22;9744;49.364;7.484;2023-10-19T08:14:58;13.80;99.90
19220;DHT22;9744;49.364;7.484;2023-10-19T08:17:26;13.90;99.90
19220;DHT22;9744;49.364;7.484;2023-10-19T08:19:53;14.00;99.90
19220;DHT22;9744;49.364;7.484;2023-10-19T08:22:22;14.00;99.90
19220;DHT22;9744;49.364;7.484;2023-10-19T08:24:49;14.00;99.90
19220;DHT22;9744;49.364;7.484;2023-10-19T08:27:19;14.00;99.90
19220;DHT22;9744;49.364;7.484;2023-10-19T08:29:48;14.10;99.90
19220;DHT22;9744;49.364;7.484;2023-10-19T08:32:16;14.10;99.90
19220;DHT22;9744;49.364;7.484;2023-10-19T08:34:43;14.20;99.90
19220;DHT22;9744;49.364;7.484;2023-10-19T08:37:10;14.10;99.90
19220;DHT22;9744;49.364;7.484;2023-10-19T08:39:39;14.20;99.90
19220;DHT22;9744;49.364;7.484;2023-10-19T08:42:06;14.20;99.90
19220;DHT22;9744;49.364;7.484;2023-10-19T08:44:37;14.30;99.90
19220;DHT22;9744;49.364;7.484;2023-10-19T08:47:05;14.30;99.90
19220;DHT22;9744;49.364;7.484;2023-10-19T08:49:32;14.30;99.90
19220;DHT22;9744;49.364;7.484;2023-10-19T08:52:00;14.40;99.90
19220;DHT22;9744;49.364;7.484;2023-10-19T08:54:30;14.40;99.90
19220;DHT22;9744;49.364;7.484;2023-10-19T08:57:00;14.50;99.90
19220;DHT22;9744;49.364;7.484;2023-10-19T08:59:28;14.50;99.90
19220;DHT22;9744;49.364;7.484;2023-10-19T09:02:01;14.60;99.90
19220;DHT22;9744;49.364;7.484;2023-10-19T09:04:29;14.60;99.90
19220;DHT22;9744;49.364;7.484;2023-10-19T09:06:56;14.60;99.90
19220;DHT22;9744;49.364;7.484;2023-10-19T09:09:23;14.70;99.90
19220;DHT22;9744;49.364;7.484;2023-10-19T09:11:52;14.70;99.90
19220;DHT22;9744;49.364;7.484;2023-10-19T09:14:31;14.80;99.90
19220;DHT22;9744;49.364;7.484;2023-10-19T09:17:01;14.80;99.90
19220;DHT22;9744;49.364;7.484;2023-10-19T09:19:39;14.80;99.90
19220;DHT22;9744;49.364;7.484;2023-10-19T09:22:08;14.80;99.90
19220;DHT22;9744;49.364;7.484;2023-10-19T09:24:43;14.80;99.90
19220;DHT22;9744;49.364;7.484;2023-10-19T09:27:11;14.80;99.90
19220;DHT22;9744;49.364;7.484;2023-10-19T09:29:39;14.80;99.90
19220;DHT22;9744;49.364;7.484;2023-10-19T09:32:10;14.90;99.90
19220;DHT22;9744;49.364;7.484;2023-10-19T09:34:40;15.00;99.90
19220;DHT22;9744;49.364;7.484;2023-10-19T09:37:11;15.10;99.90
19220;DHT22;9744;49.364;7.484;2023-10-19T09:39:39;15.20;99.90
19220;DHT22;9744;49.364;7.484;2023-10-19T09:42:10;15.20;99.90
19220;DHT22;9744;49.364;7.484;2023-10-19T09:44:40;15.20;99.90
19220;DHT22;9744;49.364;7.484;2023-10-19T09:47:11;15.30;99.90
19220;DHT22;9744;49.364;7.484;2023-10-19T09:49:41;15.30;99.90
19220;DHT22;9744;49.364;7.484;2023-10-19T09:52:09;15.40;99.90
19220;DHT22;9744;49.364;7.484;2023-10-19T09:54:50;15.50;99.90
19220;DHT22;9744;49.364;7.484;2023-10-19T09:57:25;15.50;99.90
19220;DHT22;9744;49.364;7.484;2023-10-19T10:00:00;15.60;99.90
19220;DHT22;9744;49.364;7.484;2023-10-19T10:02:42;15.60;99.90
19220;DHT22;9744;49.364;7.484;2023-10-19T10:05:44;15.60;99.90
19220;DHT22;9744;49.364;7.484;2023-10-19T10:08:30;15.70;99.90
19220;DHT22;9744;49.364;7.484;2023-10-19T10:10:58;15.70;99.90
19220;DHT22;9744;49.364;7.484;2023-10-19T10:13:38;15.80;99.90
19220;DHT22;9744;49.364;7.484;2023-10-19T10:16:06;15.80;99.90
19220;DHT22;9744;49.364;7.484;2023-10-19T10:18:36;15.80;99.90
19220;DHT22;9744;49.364;7.484;2023-10-19T10:21:07;15.80;99.90
19220;DHT22;9744;49.364;7.484;2023-10-19T10:23:40;15.80;99.90
19220;DHT22;9744;49.364;7.484;2023-10-19T10:26:10;15.80;99.90
19220;DHT22;9744;49.364;7.484;2023-10-19T10:28:38;15.80;99.90
19220;DHT22;9744;49.364;7.484;2023-10-19T10:31:14;15.80;99.90
19220;DHT22;9744;49.364;7.484;2023-10-19T10:33:44;15.80;99.90
19220;DHT22;9744;49.364;7.484;2023-10-19T10:36:12;15.80;99.90
19220;DHT22;9744;49.364;7.484;2023-10-19T10:38:40;15.70;99.90
19220;DHT22;9744;49.364;7.484;2023-10-19T10:41:08;15.70;99.90
19220;DHT22;9744;49.364;7.484;2023-10-19T10:43:50;15.70;99.90
19220;DHT22;9744;49.364;7.484;2023-10-19T10:46:19;15.70;99.90
19220;DHT22;9744;49.364;7.484;2023-10-19T10:48:48;15.70;99.90
19220;DHT22;9744;49.364;7.484;2023-10-19T10:51:21;15.70;99.90
19220;DHT22;9744;49.364;7.484;2023-10-19T10:53:50;15.60;99.90
19220;DHT22;9744;49.364;7.484;2023-10-19T10:56:18;15.60;99.90
19220;DHT22;9744;49.364;7.484;2023-10-19T10:58:45;15.60;99.90
19220;DHT22;9744;49.364;7.484;2023-10-19T11:01:14;15.50;99.90
19220;DHT22;9744;49.364;7.484;2023-10-19T11:03:41;15.50;99.90
19220;DHT22;9744;49.364;7.484;2023-10-19T11:06:10;15.40;99.90
19220;DHT22;9744;49.364;7.484;2023-10-19T11:08:39;15.30;99.90
19220;DHT22;9744;49.364;7.484;2023-10-19T11:11:08;15.20;99.90
19220;DHT22;9744;49.364;7.484;2023-10-19T11:13:37;15.20;99.90
19220;DHT22;9744;49.364;7.484;2023-10-19T11:16:06;15.20;99.90
19220;DHT22;9744;49.364;7.484;2023-10-19T11:18:39;15.20;99.90
19220;DHT22;9744;49.364;7.484;2023-10-19T11:21:09;15.20;99.90
19220;DHT22;9744;49.364;7.484;2023-10-19T11:23:42;15.20;99.90
19220;DHT22;9744;49.364;7.484;2023-10-19T11:26:11;15.10;99.90
19220;DHT22;9744;49.364;7.484;2023-10-19T11:28:39;15.10;99.90
19220;DHT22;9744;49.364;7.484;2023-10-19T11:31:17;15.10;99.90
19220;DHT22;9744;49.364;7.484;2023-10-19T11:33:46;15.10;99.90
19220;DHT22;9744;49.364;7.484;2023-10-19T11:36:18;15.20;99.90
19220;DHT22;9744;49.364;7.484;2023-10-19T11:38:47;15.20;99.90
19220;DHT22;9744;49.364;7.484;2023-10-19T11:41:16;15.20;99.90
19220;DHT22;9744;49.364;7.484;2023-10-19T11:43:45;15.20;99.90
19220;DHT22;9744;49.364;7.484;2023-10-19T11:46:14;15.10;99.90
19220;DHT22;9744;49.364;7.484;2023-10-19T11:48:42;15.00;99.90
19220;DHT22;9744;49.364;7.484;2023-10-19T11:51:09;15.10;99.90
19220;DHT22;9744;49.364;7.484;2023-10-19T11:53:41;15.10;99.90
19220;DHT22;9744;49.364;7.484;2023-10-19T11:56:12;15.00;99.90
19220;DHT22;9744;49.364;7.484;2023-10-19T11:58:41;15.10;99.90
19220;DHT22;9744;49.364;7.484;2023-10-19T12:01:10;15.10;99.90
19220;DHT22;9744;49.364;7.484;2023-10-19T12:03:38;15.00;99.90
19220;DHT22;9744;49.364;7.484;2023-10-19T12:06:07;15.00;99.90
19220;DHT22;9744;49.364;7.484;2023-10-19T12:08:34;15.00;99.90
19220;DHT22;9744;49.364;7.484;2023-10-19T12:11:04;15.00;99.90
19220;DHT22;9744;49.364;7.484;2023-10-19T12:13:41;15.10;99.90
19220;DHT22;9744;49.364;7.484;2023-10-19T12:16:09;15.10;99.90
19220;DHT22;9744;49.364;7.484;2023-10-19T12:18:38;15.10;99.90
19220;DHT22;9744;49.364;7.484;2023-10-19T12:21:05;15.00;99.90
19220;DHT22;9744;49.364;7.484;2023-10-19T12:23:38;15.00;99.90
19220;DHT22;9744;49.364;7.484;2023-10-19T12:26:08;14.90;99.90
19220;DHT22;9744;49.364;7.484;2023-10-19T12:28:38;14.90;99.90
19220;DHT22;9744;49.364;7.484;2023-10-19T12:31:07;14.90;99.90
19220;DHT22;9744;49.364;7.484;2023-10-19T12:33:36;14.80;99.90
19220;DHT22;9744;49.364;7.484;2023-10-19T12:36:04;14.80;99.90
19220;DHT22;9744;49.364;7.484;2023-10-19T12:38:50;14.80;99.90
19220;DHT22;9744;49.364;7.484;2023-10-19T12:41:21;14.70;99.90
19220;DHT22;9744;49.364;7.484;2023-10-19T12:43:48;14.70;99.90
19220;DHT22;9744;49.364;7.484;2023-10-19T12:46:19;14.70;99.90
19220;DHT22;9744;49.364;7.484;2023-10-19T12:48:47;14.70;99.90
19220;DHT22;9744;49.364;7.484;2023-10-19T12:51:15;14.70;99.90
19220;DHT22;9744;49.364;7.484;2023-10-19T12:53:49;14.70;99.90
19220;DHT22;9744;49.364;7.484;2023-10-19T12:56:17;14.70;99.90
19220;DHT22;9744;49.364;7.484;2023-10-19T12:58:45;14.70;99.90
19220;DHT22;9744;49.364;7.484;2023-10-19T13:01:15;14.60;99.90
19220;DHT22;9744;49.364;7.484;2023-10-19T13:03:45;14.60;99.90
19220;DHT22;9744;49.364;7.484;2023-10-19T13:06:13;14.60;99.90
19220;DHT22;9744;49.364;7.484;2023-10-19T13:08:40;14.60;99.90
19220;DHT22;9744;49.364;7.484;2023-10-19T13:11:08;14.60;99.90
19220;DHT22;9744;49.364;7.484;2023-10-19T13:13:40;14.60;99.90
19220;DHT22;9744;49.364;7.484;2023-10-19T13:16:09;14.60;99.90
19220;DHT22;9744;49.364;7.484;2023-10-19T13:18:36;14.60;99.90
19220;DHT22;9744;49.364;7.484;2023-10-19T13:21:06;14.60;99.90
19220;DHT22;9744;49.364;7.484;2023-10-19T13:23:37;14.60;99.90
19220;DHT22;9744;49.364;7.484;2023-10-19T13:26:05;14.50;99.90
19220;DHT22;9744;49.364;7.484;2023-10-19T13:28:44;14.50;99.90
19220;DHT22;9744;49.364;7.484;2023-10-19T13:31:13;14.50;99.90
19220;DHT22;9744;49.364;7.484;2023-10-19T13:33:41;14.50;99.90
19220;DHT22;9744;49.364;7.484;2023-10-19T13:36:11;14.50;99.90
19220;DHT22;9744;49.364;7.484;2023-10-19T13:38:39;14.40;99.90
19220;DHT22;9744;49.364;7.484;2023-10-19T13:41:07;14.40;99.90
19220;DHT22;9744;49.364;7.484;2023-10-19T13:43:35;14.40;99.90
19220;DHT22;9744;49.364;7.484;2023-10-19T13:46:22;14.40;99.90
19220;DHT22;9744;49.364;7.484;2023-10-19T13:48:50;14.40;99.90
19220;DHT22;9744;49.364;7.484;2023-10-19T13:51:17;14.40;99.90
19220;DHT22;9744;49.364;7.484;2023-10-19T13:53:46;14.40;99.90
19220;DHT22;9744;49.364;7.484;2023-10-19T13:56:14;14.40;99.90
19220;DHT22;9744;49.364;7.484;2023-10-19T13:58:41;14.50;99.90
19220;DHT22;9744;49.364;7.484;2023-10-19T14:01:10;14.50;99.90
19220;DHT22;9744;49.364;7.484;2023-10-19T14:03:40;14.60;99.90
19220;DHT22;9744;49.364;7.484;2023-10-19T14:06:12;14.60;99.90
19220;DHT22;9744;49.364;7.484;2023-10-19T14:08:39;14.60;99.90
19220;DHT22;9744;49.364;7.484;2023-10-19T14:11:06;14.70;99.90
19220;DHT22;9744;49.364;7.484;2023-10-19T14:13:33;14.70;99.90
19220;DHT22;9744;49.364;7.484;2023-10-19T14:16:05;14.70;99.90
19220;DHT22;9744;49.364;7.484;2023-10-19T14:18:33;14.80;99.90
19220;DHT22;9744;49.364;7.484;2023-10-19T14:21:10;14.80;99.90
19220;DHT22;9744;49.364;7.484;2023-10-19T14:23:39;14.90;99.90
19220;DHT22;9744;49.364;7.484;2023-10-19T14:26:09;15.00;99.90
19220;DHT22;9744;49.364;7.484;2023-10-19T14:28:36;15.00;99.90
19220;DHT22;9744;49.364;7.484;2023-10-19T14:31:04;15.00;99.90
19220;DHT22;9744;49.364;7.484;2023-10-19T14:33:33;15.00;99.90
19220;DHT22;9744;49.364;7.484;2023-10-19T14:36:03;15.00;99.90
19220;DHT22;9744;49.364;7.484;2023-10-19T14:38:31;14.90;99.90
19220;DHT22;9744;49.364;7.484;2023-10-19T14:40:58;14.90;99.90
19220;DHT22;9744;49.364;7.484;2023-10-19T14:43:26;15.00;99.90
19220;DHT22;9744;49.364;7.484;2023-10-19T14:45:55;15.10;99.90
19220;DHT22;9744;49.364;7.484;2023-10-19T14:48:23;15.30;99.90
19220;DHT22;9744;49.364;7.484;2023-10-19T14:50:51;15.50;99.90
19220;DHT22;9744;49.364;7.484;2023-10-19T14:53:21;15.80;99.90
19220;DHT22;9744;49.364;7.484;2023-10-19T14:55:49;16.00;99.90
19220;DHT22;9744;49.364;7.484;2023-10-19T14:58:17;16.00;99.90
19220;DHT22;9744;49.364;7.484;2023-10-19T15:00:44;16.10;99.90
19220;DHT22;9744;49.364;7.484;2023-10-19T15:03:15;16.10;99.90
19220;DHT22;9744;49.364;7.484;2023-10-19T15:05:49;16.10;99.90
19220;DHT22;9744;49.364;7.484;2023-10-19T15:08:17;16.20;99.90
19220;DHT22;9744;49.364;7.484;2023-10-19T15:10:46;16.10;99.90
19220;DHT22;9744;49.364;7.484;2023-10-19T15:13:14;15.90;99.90
19220;DHT22;9744;49.364;7.484;2023-10-19T15:15:41;15.80;99.90
19220;DHT22;9744;49.364;7.484;2023-10-19T15:18:08;15.70;99.90
19220;DHT22;9744;49.364;7.484;2023-10-19T15:20:36;15.60;99.90
19220;DHT22;9744;49.364;7.484;2023-10-19T15:23:03;15.50;99.90
19220;DHT22;9744;49.364;7.484;2023-10-19T15:25:31;15.20;99.90
19220;DHT22;9744;49.364;7.484;2023-10-19T15:27:59;15.20;99.90
19220;DHT22;9744;49.364;7.484;2023-10-19T15:30:28;15.10;99.90
19220;DHT22;9744;49.364;7.484;2023-10-19T15:32:55;15.00;99.90
19220;DHT22;9744;49.364;7.484;2023-10-19T15:35:23;15.00;99.90
19220;DHT22;9744;49.364;7.484;2023-10-19T15:37:51;14.90;99.90
19220;DHT22;9744;49.364;7.484;2023-10-19T15:40:20;14.80;99.90
19220;DHT22;9744;49.364;7.484;2023-10-19T15:42:48;14.70;99.90
19220;DHT22;9744;49.364;7.484;2023-10-19T15:45:16;14.80;99.90
19220;DHT22;9744;49.364;7.484;2023-10-19T15:47:46;14.70;99.90
19220;DHT22;9744;49.364;7.484;2023-10-19T15:50:14;14.70;99.90
19220;DHT22;9744;49.364;7.484;2023-10-19T15:52:44;14.70;99.90
19220;DHT22;9744;49.364;7.484;2023-10-19T15:55:13;14.60;99.90
19220;DHT22;9744;49.364;7.484;2023-10-19T15:57:41;14.60;99.90
19220;DHT22;9744;49.364;7.484;2023-10-19T16:00:11;14.50;99.90
19220;DHT22;9744;49.364;7.484;2023-10-19T16:02:42;14.50;99.90